^^
Marion, Virginia Banner
 

Adwolf, VA. Station Historical Data
[ Providing Data Since 6/07/2007 ]
Station Historical Data
Daily Summary for August 13, 2017 Units:  Metric    English   Both
« Previous Day
Next Day »
Daily Weekly Monthly Yearly Custom
  High: Low: Average:
Temperature: 31.2 °C 20.1 °C 24.2 °C
Dew Point: 21.5 °C 19.1 °C 19.9 °C
Humidity: 94% 52% 79%
Wind Speed: 14.8km/h 0km/h 3.1km/h
Wind Gust: 14.8km/h - -
Wind- - SE
Pressure: 1019.9 hPa 1016.8 hPa -
Precipitation: 0 mm    
Historical Graphs
 
 
Tabular Data for August 13, 2017
Time Temperature Dew Point Pressure Wind Wind Speed Wind Gust Humidity Rainfall Rate (Hourly) solar Conditions
00:03 21.4 °C 20.1 °C 1017.8 hPa SSW 1.9 km/h 1.9 km/h 92% 0 mm WeatherDisplay:10.37 W/m2 RA
00:08 21.4 °C 20 °C 1017.8 hPa Calm     92% 0 mm WeatherDisplay:10.37 W/m2 RA
00:13 21.4 °C 20 °C 1017.8 hPa Calm   1 km/h 92% 0 mm WeatherDisplay:10.37 W/m2 OVC
00:18 21.3 °C 19.9 °C 1018.2 hPa SSW 1.6 km/h 1.6 km/h 92% 0 mm WeatherDisplay:10.37 W/m2 OVC
00:23 21.3 °C 19.9 °C 1018.2 hPa SSW 1.9 km/h   92% 0 mm WeatherDisplay:10.37 W/m2 OVC
00:28 21.2 °C 19.8 °C 1017.8 hPa Calm     92% 0 mm WeatherDisplay:10.37 W/m2 OVC
00:33 21.2 °C 19.8 °C 1017.8 hPa Calm     92% 0 mm WeatherDisplay:10.37 W/m2 OVC
00:38 21.1 °C 19.7 °C 1018.2 hPa Calm     92% 0 mm WeatherDisplay:10.37 W/m2 OVC
00:43 21.1 °C 19.7 °C 1018.2 hPa Calm     92% 0 mm WeatherDisplay:10.37 W/m2 BKN
00:48 21 °C 19.6 °C 1017.8 hPa SSW 1.9 km/h   92% 0 mm WeatherDisplay:10.37 W/m2 BKN
00:53 20.9 °C 19.6 °C 1018.2 hPa SSW 1.9 km/h 1.9 km/h 92% 0 mm WeatherDisplay:10.37 W/m2 BKN
00:58 20.9 °C 19.5 °C 1018.2 hPa Calm     92% 0 mm WeatherDisplay:10.37 W/m2 BKN
01:03 20.9 °C 19.5 °C 1017.8 hPa Calm     92% 0 mm WeatherDisplay:10.37 W/m2 OVC
01:08 20.8 °C 19.4 °C 1017.8 hPa Calm     92% 0 mm WeatherDisplay:10.37 W/m2 OVC
01:13 20.8 °C 19.4 °C 1017.8 hPa SSW 1.9 km/h 1.9 km/h 92% 0 mm WeatherDisplay:10.37 W/m2 OVC
01:18 20.7 °C 19.3 °C 1017.8 hPa SSW 1.9 km/h   92% 0 mm WeatherDisplay:10.37 W/m2 OVC
01:23 20.6 °C 19.2 °C 1017.8 hPa Calm     92% 0 mm WeatherDisplay:10.37 W/m2 BKN
01:28 20.6 °C 19.2 °C 1017.8 hPa Calm     92% 0 mm WeatherDisplay:10.37 W/m2 BKN
01:33 20.5 °C 19.3 °C 1017.8 hPa Calm     93% 0 mm WeatherDisplay:10.37 W/m2 BKN
01:38 20.4 °C 19.3 °C 1017.8 hPa Calm     93% 0 mm WeatherDisplay:10.37 W/m2 BKN
01:43 20.4 °C 19.3 °C 1017.8 hPa Calm     93% 0 mm WeatherDisplay:10.37 W/m2 SCT
01:48 20.4 °C 19.2 °C 1017.8 hPa Calm     93% 0 mm WeatherDisplay:10.37 W/m2 SCT
01:53 20.4 °C 19.2 °C 1017.8 hPa SSW 3.7 km/h 3.7 km/h 93% 0 mm WeatherDisplay:10.37 W/m2 SCT
01:58 20.4 °C 19.2 °C 1017.8 hPa Calm     93% 0 mm WeatherDisplay:10.37 W/m2 SCT
01:59 20.4 °C 19.2 °C 1017.8 hPa Calm     93% 0 mm WeatherDisplay:10.37 W/m2 SCT
02:03 20.4 °C 19.2 °C 1017.5 hPa Calm     93% 0 mm WeatherDisplay:10.37 W/m2 OVC
02:09 20.3 °C 19.2 °C 1017.8 hPa Calm     93% 0 mm WeatherDisplay:10.37 W/m2 OVC
02:14 20.4 °C 19.2 °C 1017.8 hPa Calm     93% 0 mm WeatherDisplay:10.37 W/m2 OVC
02:19 20.4 °C 19.2 °C 1017.8 hPa Calm     93% 0 mm WeatherDisplay:10.37 W/m2 OVC
02:23 20.4 °C 19.3 °C 1017.8 hPa Calm     93% 0 mm WeatherDisplay:10.37 W/m2 OVC
02:29 20.4 °C 19.3 °C 1017.8 hPa Calm     93% 0 mm WeatherDisplay:10.37 W/m2 OVC
02:33 20.4 °C 19.3 °C 1017.8 hPa Calm     93% 0 mm WeatherDisplay:10.37 W/m2 OVC
02:39 20.5 °C 19.3 °C 1017.8 hPa Calm     93% 0 mm WeatherDisplay:10.37 W/m2 OVC
02:43 20.5 °C 19.3 °C 1017.8 hPa Calm     93% 0 mm WeatherDisplay:10.37 W/m2 OVC
02:49 20.5 °C 19.3 °C 1017.8 hPa SSW 1.9 km/h   93% 0 mm WeatherDisplay:10.37 W/m2 OVC
02:54 20.5 °C 19.5 °C 1017.8 hPa Calm     94% 0 mm WeatherDisplay:10.37 W/m2 OVC
02:58 20.5 °C 19.5 °C 1017.8 hPa Calm     94% 0 mm WeatherDisplay:10.37 W/m2 OVC
03:03 20.6 °C 19.6 °C 1017.8 hPa Calm     94% 0 mm WeatherDisplay:10.37 W/m2 OVC
03:09 20.5 °C 19.5 °C 1017.8 hPa Calm     94% 0 mm WeatherDisplay:10.37 W/m2 OVC
03:14 20.5 °C 19.5 °C 1017.8 hPa SSW 1.9 km/h 1.9 km/h 94% 0 mm WeatherDisplay:10.37 W/m2 OVC
03:18 20.5 °C 19.5 °C 1017.8 hPa SSW 1.9 km/h 1.9 km/h 94% 0 mm WeatherDisplay:10.37 W/m2 OVC
03:23 20.5 °C 19.5 °C 1017.8 hPa SSW 1.6 km/h 1.6 km/h 94% 0 mm WeatherDisplay:10.37 W/m2 OVC
03:29 20.4 °C 19.3 °C 1017.8 hPa Calm     93% 0 mm WeatherDisplay:10.37 W/m2 OVC
03:33 20.4 °C 19.4 °C 1017.8 hPa Calm     94% 0 mm WeatherDisplay:10.37 W/m2 OVC
03:39 20.4 °C 19.4 °C 1017.8 hPa Calm     94% 0 mm WeatherDisplay:10.37 W/m2 OVC
03:43 20.4 °C 19.4 °C 1017.8 hPa Calm     94% 0 mm WeatherDisplay:10.37 W/m2 OVC
03:49 20.4 °C 19.4 °C 1017.8 hPa Calm     94% 0 mm WeatherDisplay:10.37 W/m2 OVC
03:54 20.4 °C 19.4 °C 1017.8 hPa Calm     94% 0 mm WeatherDisplay:10.37 W/m2 OVC
03:59 20.4 °C 19.4 °C 1017.8 hPa Calm     94% 0 mm WeatherDisplay:10.37 W/m2 OVC
04:04 20.4 °C 19.4 °C 1017.8 hPa Calm     94% 0 mm WeatherDisplay:10.37 W/m2 OVC
04:09 20.4 °C 19.4 °C 1017.8 hPa SSW 3.2 km/h 3.2 km/h 94% 0 mm WeatherDisplay:10.37 W/m2 OVC
04:14 20.4 °C 19.4 °C 1017.8 hPa SSW 3.7 km/h 3.7 km/h 94% 0 mm WeatherDisplay:10.37 W/m2 OVC
04:19 20.4 °C 19.4 °C 1017.8 hPa SSW 1.9 km/h   94% 0 mm WeatherDisplay:10.37 W/m2 OVC
04:24 20.4 °C 19.4 °C 1017.8 hPa SSW 1.9 km/h 1.9 km/h 94% 0 mm WeatherDisplay:10.37 W/m2 OVC
04:29 20.4 °C 19.4 °C 1017.8 hPa Calm     94% 0 mm WeatherDisplay:10.37 W/m2 OVC
04:34 20.4 °C 19.4 °C 1017.8 hPa SSW 3.7 km/h 3.7 km/h 94% 0 mm WeatherDisplay:10.37 W/m2 OVC
04:39 20.4 °C 19.4 °C 1017.8 hPa Calm     94% 0 mm WeatherDisplay:10.37 W/m2 OVC
04:44 20.4 °C 19.4 °C 1017.8 hPa SSW 1.9 km/h 1.9 km/h 94% 0 mm WeatherDisplay:10.37 W/m2 OVC
04:49 20.4 °C 19.4 °C 1018.2 hPa Calm     94% 0 mm WeatherDisplay:10.37 W/m2 OVC
04:54 20.4 °C 19.4 °C 1017.8 hPa Calm     94% 0 mm WeatherDisplay:10.37 W/m2 OVC
04:59 20.4 °C 19.4 °C 1017.8 hPa Calm     94% 0 mm WeatherDisplay:10.37 W/m2 OVC
05:04 20.4 °C 19.4 °C 1017.8 hPa Calm     94% 0 mm WeatherDisplay:10.37 W/m2 OVC
05:09 20.4 °C 19.4 °C 1017.8 hPa Calm     94% 0 mm WeatherDisplay:10.37 W/m2 OVC
05:14 20.4 °C 19.4 °C 1017.8 hPa Calm     94% 0 mm WeatherDisplay:10.37 W/m2 OVC
05:19 20.4 °C 19.4 °C 1017.8 hPa Calm     94% 0 mm WeatherDisplay:10.37 W/m2 OVC
05:24 20.4 °C 19.4 °C 1017.5 hPa Calm     94% 0 mm WeatherDisplay:10.37 W/m2 OVC
05:29 20.4 °C 19.4 °C 1017.8 hPa Calm     94% 0 mm WeatherDisplay:10.37 W/m2 OVC
05:34 20.3 °C 19.3 °C 1017.8 hPa Calm     94% 0 mm WeatherDisplay:10.37 W/m2 OVC
05:39 20.3 °C 19.3 °C 1017.8 hPa Calm     94% 0 mm WeatherDisplay:10.37 W/m2 OVC
05:44 20.3 °C 19.3 °C 1017.5 hPa Calm     94% 0 mm WeatherDisplay:10.37 W/m2 OVC
05:49 20.3 °C 19.3 °C 1017.5 hPa Calm     94% 0 mm WeatherDisplay:10.37 W/m2 OVC
05:54 20.3 °C 19.3 °C 1017.5 hPa Calm     94% 0 mm WeatherDisplay:10.37 W/m2 OVC
05:59 20.3 °C 19.3 °C 1017.5 hPa Calm     94% 0 mm WeatherDisplay:10.37 W/m2 OVC
06:04 20.3 °C 19.3 °C 1017.8 hPa Calm     94% 0 mm WeatherDisplay:10.37 W/m2 OVC
06:09 20.4 °C 19.4 °C 1017.8 hPa Calm     94% 0 mm WeatherDisplay:10.37 W/m2 OVC
06:14 20.3 °C 19.3 °C 1018.2 hPa Calm     94% 0 mm WeatherDisplay:10.37 W/m2 OVC
06:19 20.3 °C 19.3 °C 1018.2 hPa Calm     94% 0 mm WeatherDisplay:10.37 W/m2 OVC
06:24 20.3 °C 19.3 °C 1018.2 hPa Calm     94% 0 mm WeatherDisplay:10.37 W/m2 OVC
06:29 20.3 °C 19.3 °C 1018.2 hPa Calm     94% 0 mm WeatherDisplay:10.37 W/m2 OVC
06:34 20.3 °C 19.3 °C 1018.5 hPa Calm     94% 0 mm WeatherDisplay:10.37 W/m2 OVC
06:39 20.2 °C 19.2 °C 1018.2 hPa Calm     94% 0 mm WeatherDisplay:10.37 W/m2 OVC
06:44 20.2 °C 19.2 °C 1018.2 hPa Calm     94% 0 mm WeatherDisplay:10.37 W/m2 OVC
06:49 20.2 °C 19.2 °C 1018.5 hPa Calm     94% 0 mm WeatherDisplay:10.37 W/m2 OVC
06:54 20.1 °C 19.1 °C 1018.5 hPa Calm     94% 0 mm WeatherDisplay:10.37 W/m2 OVC
06:59 20.1 °C 19.1 °C 1018.5 hPa Calm     94% 0 mm WeatherDisplay:10.37 W/m2 OVC
07:04 20.1 °C 19.1 °C 1018.5 hPa Calm     94% 0 mm WeatherDisplay:10.37 W/m2 OVC
07:09 20.1 °C 19.1 °C 1018.5 hPa Calm     94% 0 mm WeatherDisplay:10.37 W/m2 OVC
07:14 20.2 °C 19.2 °C 1018.8 hPa Calm     94% 0 mm WeatherDisplay:10.37 W/m2 OVC
07:19 20.2 °C 19.2 °C 1018.5 hPa Calm     94% 0 mm WeatherDisplay:10.37 W/m2 OVC
07:24 20.2 °C 19.2 °C 1018.5 hPa Calm     94% 0 mm WeatherDisplay:10.37 W/m2 OVC
07:29 20.3 °C 19.3 °C 1018.8 hPa Calm     94% 0 mm WeatherDisplay:10.37 W/m2 OVC
07:34 20.3 °C 19.3 °C 1018.8 hPa Calm     94% 0 mm WeatherDisplay:10.37 W/m2 OVC
07:39 20.3 °C 19.3 °C 1018.8 hPa Calm     94% 0 mm WeatherDisplay:10.37 W/m2 OVC
07:44 20.3 °C 19.3 °C 1018.8 hPa Calm     94% 0 mm WeatherDisplay:10.37 W/m2 OVC
07:49 20.3 °C 19.3 °C 1018.8 hPa Calm     94% 0 mm WeatherDisplay:10.37 W/m2 OVC
07:54 20.4 °C 19.4 °C 1018.8 hPa Calm     94% 0 mm WeatherDisplay:10.37 W/m2 OVC
07:59 20.5 °C 19.5 °C 1018.8 hPa Calm     94% 0 mm WeatherDisplay:10.37 W/m2 OVC
08:04 20.6 °C 19.6 °C 1018.8 hPa Calm     94% 0 mm WeatherDisplay:10.37 W/m2 OVC
08:09 20.7 °C 19.7 °C 1018.8 hPa Calm     94% 0 mm WeatherDisplay:10.37 W/m2 OVC
08:10 20.7 °C 19.7 °C 1018.8 hPa Calm     94% 0 mm WeatherDisplay:10.37 W/m2 OVC
08:15 20.8 °C 19.8 °C 1018.8 hPa Calm     94% 0 mm WeatherDisplay:10.37 W/m2 OVC
08:20 20.8 °C 19.8 °C 1018.8 hPa Calm     94% 0 mm WeatherDisplay:10.37 W/m2 OVC
08:25 20.8 °C 19.8 °C 1018.8 hPa SSW 5.6 km/h 5.6 km/h 94% 0 mm WeatherDisplay:10.37 W/m2 OVC
08:30 20.9 °C 19.7 °C 1018.8 hPa SSW 3.2 km/h 3.2 km/h 93% 0 mm WeatherDisplay:10.37 W/m2 OVC
08:35 20.9 °C 19.7 °C 1018.8 hPa SSW 3.7 km/h 3.7 km/h 93% 0 mm WeatherDisplay:10.37 W/m2 OVC
08:40 21.1 °C 19.7 °C 1018.8 hPa SSW 3.7 km/h 3.7 km/h 92% 0 mm WeatherDisplay:10.37 W/m2 OVC
08:45 21.2 °C 19.7 °C 1018.8 hPa SSW 1.9 km/h 1.9 km/h 91% 0 mm WeatherDisplay:10.37 W/m2 BKN
08:50 21.3 °C 19.8 °C 1019.2 hPa SSW 5.6 km/h 5.6 km/h 91% 0 mm WeatherDisplay:10.37 W/m2 BKN
08:55 21.5 °C 19.9 °C 1019.2 hPa SSW 3.7 km/h 3.7 km/h 91% 0 mm WeatherDisplay:10.37 W/m2 BKN
09:00 21.6 °C 19.9 °C 1019.2 hPa SSW 1.9 km/h 1.9 km/h 90% 0 mm WeatherDisplay:10.37 W/m2 BKN
09:05 21.8 °C 20.1 °C 1019.2 hPa NE 5.6 km/h 5.6 km/h 90% 0 mm WeatherDisplay:10.37 W/m2 BKN
09:10 21.9 °C 20 °C 1019.2 hPa NE 3.7 km/h 3.7 km/h 89% 0 mm WeatherDisplay:10.37 W/m2 BKN
09:15 22.2 °C 20.1 °C 1019.2 hPa ENE 5.6 km/h 5.6 km/h 88% 0 mm WeatherDisplay:10.37 W/m2 BKN
09:20 22.3 °C 20.1 °C 1019.2 hPa NE 5.6 km/h 5.6 km/h 87% 0 mm WeatherDisplay:10.37 W/m2 BKN
09:25 22.6 °C 20.3 °C 1019.2 hPa NE 5.6 km/h 5.6 km/h 87% 0 mm WeatherDisplay:10.37 W/m2 SCT
09:30 22.8 °C 20.3 °C 1019.2 hPa North 7.4 km/h 7.4 km/h 86% 0 mm WeatherDisplay:10.37 W/m2 SCT
09:35 23.1 °C 20.4 °C 1019.2 hPa North 3.7 km/h 3.7 km/h 85% 0 mm WeatherDisplay:10.37 W/m2 SCT
09:40 23.3 °C 20.2 °C 1019.2 hPa NNE 8 km/h 8 km/h 83% 0 mm WeatherDisplay:10.37 W/m2 SCT
09:45 23.4 °C 20.4 °C 1019.2 hPa ENE 5.6 km/h 5.6 km/h 83% 0 mm WeatherDisplay:10.37 W/m2 BKN
09:50 23.7 °C 20.6 °C 1019.2 hPa ENE 5.6 km/h 5.6 km/h 83% 0 mm WeatherDisplay:10.37 W/m2 BKN
09:55 23.7 °C 20.2 °C 1019.2 hPa NE 5.6 km/h 5.6 km/h 81% 0 mm WeatherDisplay:10.37 W/m2 BKN
10:00 23.7 °C 20.4 °C 1019.2 hPa NNE 7.4 km/h 7.4 km/h 82% 0 mm WeatherDisplay:10.37 W/m2 BKN
10:05 24 °C 20.7 °C 1019.5 hPa NNE 5.6 km/h 5.6 km/h 82% 0 mm WeatherDisplay:10.37 W/m2 OVC
10:10 24.3 °C 20.6 °C 1019.5 hPa NNE 3.7 km/h 3.7 km/h 80% 0 mm WeatherDisplay:10.37 W/m2 OVC
10:15 24.9 °C 20.8 °C 1019.5 hPa NNE 5.6 km/h 5.6 km/h 78% 0 mm WeatherDisplay:10.37 W/m2 OVC
10:20 25.4 °C 21.1 °C 1019.5 hPa NNE 3.7 km/h 3.7 km/h 77% 0 mm WeatherDisplay:10.37 W/m2 OVC
10:25 25.8 °C 21.2 °C 1019.5 hPa NNE 3.7 km/h 3.7 km/h 76% 0 mm WeatherDisplay:10.37 W/m2 BKN
10:30 25.6 °C 21 °C 1019.5 hPa NNW 5.6 km/h 5.6 km/h 76% 0 mm WeatherDisplay:10.37 W/m2 BKN
10:32 25.3 °C 20.8 °C 1019.5 hPa West 5.6 km/h 5.6 km/h 76% 0 mm WeatherDisplay:10.37 W/m2 BKN
10:37 24.9 °C 20.8 °C 1019.5 hPa West 3.7 km/h 3.7 km/h 78% 0 mm WeatherDisplay:10.37 W/m2 BKN
10:42 24.8 °C 20.5 °C 1019.5 hPa West 5.6 km/h 5.6 km/h 77% 0 mm WeatherDisplay:10.37 W/m2 OVC
10:47 24.7 °C 20.4 °C 1019.5 hPa West 5.6 km/h 5.6 km/h 77% 0 mm WeatherDisplay:10.37 W/m2 OVC
10:52 24.9 °C 20.6 °C 1019.5 hPa West 1.9 km/h 1.9 km/h 77% 0 mm WeatherDisplay:10.37 W/m2 OVC
10:57 25.1 °C 20.3 °C 1019.5 hPa West 5.6 km/h 5.6 km/h 75% 0 mm WeatherDisplay:10.37 W/m2 OVC
11:02 25.2 °C 20.4 °C 1019.9 hPa North 5.6 km/h 5.6 km/h 75% 0 mm WeatherDisplay:10.37 W/m2 OVC
11:07 25.2 °C 20.2 °C 1019.9 hPa West 5.6 km/h 5.6 km/h 74% 0 mm WeatherDisplay:10.37 W/m2 OVC
11:12 25.2 °C 20.4 °C 1019.9 hPa West 5.6 km/h 5.6 km/h 75% 0 mm WeatherDisplay:10.37 W/m2 OVC
11:14 25.1 °C 20.3 °C 1019.9 hPa West 5.6 km/h 5.6 km/h 75% 0 mm WeatherDisplay:10.37 W/m2 OVC
11:19 25.2 °C 20.6 °C 1019.9 hPa West 5.6 km/h 5.6 km/h 76% 0 mm WeatherDisplay:10.37 W/m2 OVC
11:24 25.3 °C 21.2 °C 1019.9 hPa NNW 3.7 km/h 3.7 km/h 78% 0 mm WeatherDisplay:10.37 W/m2 SCT
11:29 25.6 °C 20.3 °C 1019.9 hPa North 5.6 km/h 5.6 km/h 73% 0 mm WeatherDisplay:10.37 W/m2 SCT
11:34 25.6 °C 20.6 °C 1019.5 hPa NNE 7.4 km/h 7.4 km/h 74% 0 mm WeatherDisplay:10.37 W/m2 SCT
11:39 25.8 °C 20.6 °C 1019.5 hPa WNW 6.4 km/h 6.4 km/h 73% 0 mm WeatherDisplay:10.37 W/m2 SCT
11:44 25.9 °C 20.4 °C 1019.5 hPa NNE 13 km/h 13 km/h 72% 0 mm WeatherDisplay:10.37 W/m2 BKN
11:49 26 °C 20.6 °C 1019.5 hPa North 7.4 km/h 7.4 km/h 72% 0 mm WeatherDisplay:10.37 W/m2 BKN
11:54 26.1 °C 20.6 °C 1019.5 hPa NNE 8 km/h 8 km/h 72% 0 mm WeatherDisplay:10.37 W/m2 BKN
11:59 26.1 °C 20.1 °C 1019.2 hPa NNE 7.4 km/h 7.4 km/h 70% 0 mm WeatherDisplay:10.37 W/m2 BKN
12:04 26.2 °C 20.5 °C 1019.2 hPa NNE 7.4 km/h 7.4 km/h 71% 0 mm WeatherDisplay:10.37 W/m2 BKN
12:09 26.3 °C 20.1 °C 1019.2 hPa West 7.4 km/h 7.4 km/h 69% 0 mm WeatherDisplay:10.37 W/m2 BKN
12:14 26.6 °C 20.4 °C 1019.2 hPa ESE 13 km/h 13 km/h 69% 0 mm WeatherDisplay:10.37 W/m2 BKN
12:19 27.3 °C 20.8 °C 1019.2 hPa East 5.6 km/h 5.6 km/h 68% 0 mm WeatherDisplay:10.37 W/m2 BKN
12:24 27.6 °C 20.1 °C 1019.2 hPa NNE 11.1 km/h 11.1 km/h 64% 0 mm WeatherDisplay:10.37 W/m2 BKN
12:29 27.6 °C 20.4 °C 1019.2 hPa North 5.6 km/h 5.6 km/h 65% 0 mm WeatherDisplay:10.37 W/m2 BKN
12:34 27.7 °C 20.4 °C 1019.2 hPa NNE 8 km/h 8 km/h 65% 0 mm WeatherDisplay:10.37 W/m2 BKN
12:39 27.3 °C 19.8 °C 1019.2 hPa North 14.8 km/h 14.8 km/h 64% 0 mm WeatherDisplay:10.37 W/m2 BKN
12:44 27.2 °C 20.8 °C 1019.2 hPa North 8 km/h 8 km/h 68% 0 mm WeatherDisplay:10.37 W/m2 SCT
12:49 27.3 °C 20.1 °C 1018.8 hPa South 5.6 km/h 5.6 km/h 65% 0 mm WeatherDisplay:10.37 W/m2 SCT
12:54 27.7 °C 20.7 °C 1018.8 hPa NW 4.8 km/h 4.8 km/h 66% 0 mm WeatherDisplay:10.37 W/m2 SCT
12:59 27.8 °C 20.1 °C 1018.8 hPa NNE 6.4 km/h 6.4 km/h 63% 0 mm WeatherDisplay:10.37 W/m2 SCT
13:04 27.7 °C 20.3 °C 1018.8 hPa NNE 5.6 km/h 5.6 km/h 64% 0 mm WeatherDisplay:10.37 W/m2 SCT
13:09 27.5 °C 19.8 °C 1018.8 hPa NNE 5.6 km/h 5.6 km/h 63% 0 mm WeatherDisplay:10.37 W/m2 SCT
13:14 27.7 °C 19.9 °C 1018.8 hPa NNE 5.6 km/h 5.6 km/h 63% 0 mm WeatherDisplay:10.37 W/m2 SCT
13:19 28 °C 20.3 °C 1018.5 hPa SW 5.6 km/h 5.6 km/h 63% 0 mm WeatherDisplay:10.37 W/m2 SCT
13:24 28.3 °C 20.1 °C 1018.5 hPa South 5.6 km/h 5.6 km/h 61% 0 mm WeatherDisplay:10.37 W/m2 SCT
13:29 29.1 °C 21.3 °C 1018.5 hPa West 3.7 km/h 3.7 km/h 63% 0 mm WeatherDisplay:10.37 W/m2 SCT
13:34 29.7 °C 20.8 °C 1018.5 hPa NNE 5.6 km/h 5.6 km/h 59% 0 mm WeatherDisplay:10.37 W/m2 SCT
13:39 30 °C 20.6 °C 1018.5 hPa NNE 5.6 km/h 5.6 km/h 57% 0 mm WeatherDisplay:10.37 W/m2 SCT
13:44 30.3 °C 20.2 °C 1018.5 hPa South 5.6 km/h 5.6 km/h 55% 0 mm WeatherDisplay:10.37 W/m2 SCT
13:49 30.8 °C 20.4 °C 1018.5 hPa SSE 5.6 km/h 5.6 km/h 54% 0 mm WeatherDisplay:10.37 W/m2 SCT
13:54 31.1 °C 20.4 °C 1018.5 hPa SE 5.6 km/h 5.6 km/h 53% 0 mm WeatherDisplay:10.37 W/m2 SCT
13:59 31.2 °C 20.2 °C 1018.5 hPa East 5.6 km/h 5.6 km/h 52% 0 mm WeatherDisplay:10.37 W/m2 SCT
14:04 31.1 °C 20 °C 1018.2 hPa East 5.6 km/h 5.6 km/h 52% 0 mm WeatherDisplay:10.37 W/m2 SCT
14:05 30.9 °C 20.2 °C 1018.5 hPa SSW 5.6 km/h 5.6 km/h 53% 0 mm WeatherDisplay:10.37 W/m2 SCT
14:10 30.4 °C 20 °C 1018.2 hPa North 6.4 km/h 6.4 km/h 54% 0 mm WeatherDisplay:10.37 W/m2 SCT
14:15 29.8 °C 19.8 °C 1018.2 hPa North 7.4 km/h 7.4 km/h 55% 0 mm WeatherDisplay:10.37 W/m2 SCT
14:20 29.3 °C 19.6 °C 1018.2 hPa North 5.6 km/h 5.6 km/h 56% 0 mm WeatherDisplay:10.37 W/m2 SCT
14:25 29.4 °C 20 °C 1018.2 hPa West 5.6 km/h 5.6 km/h 57% 0 mm WeatherDisplay:10.37 W/m2 BKN
14:30 29.4 °C 19.1 °C 1018.2 hPa NNE 5.6 km/h 5.6 km/h 54% 0 mm WeatherDisplay:10.37 W/m2 BKN
14:35 29.4 °C 19.4 °C 1018.2 hPa NNE 5.6 km/h 5.6 km/h 55% 0 mm WeatherDisplay:10.37 W/m2 BKN
14:40 29.5 °C 20.1 °C 1018.2 hPa NNE 5.6 km/h 5.6 km/h 57% 0 mm WeatherDisplay:10.37 W/m2 BKN
14:45 29.4 °C 19.7 °C 1018.2 hPa NNE 5.6 km/h 5.6 km/h 56% 0 mm WeatherDisplay:10.37 W/m2 SCT
14:50 29.1 °C 19.7 °C 1017.8 hPa North 5.6 km/h 5.6 km/h 57% 0 mm WeatherDisplay:10.37 W/m2 SCT
14:55 28.9 °C 20.1 °C 1017.8 hPa North 5.6 km/h 5.6 km/h 59% 0 mm WeatherDisplay:10.37 W/m2 SCT
15:00 29.1 °C 20 °C 1017.8 hPa North 6.4 km/h 6.4 km/h 58% 0 mm WeatherDisplay:10.37 W/m2 SCT
15:05 29.3 °C 19.9 °C 1017.8 hPa NNE 5.6 km/h 5.6 km/h 57% 0 mm WeatherDisplay:10.37 W/m2 BKN
15:10 29.3 °C 20.2 °C 1017.8 hPa NNE 5.6 km/h 5.6 km/h 58% 0 mm WeatherDisplay:10.37 W/m2 BKN
15:15 29.2 °C 19.8 °C 1017.5 hPa North 7.4 km/h 7.4 km/h 57% 0 mm WeatherDisplay:10.37 W/m2 BKN
15:20 29.1 °C 19.7 °C 1017.5 hPa North 5.6 km/h 5.6 km/h 57% 0 mm WeatherDisplay:10.37 W/m2 BKN
15:25 29.3 °C 20.2 °C 1017.5 hPa North 5.6 km/h 5.6 km/h 58% 0 mm WeatherDisplay:10.37 W/m2 OVC
15:30 29 °C 19.9 °C 1017.5 hPa SSW 13 km/h 13 km/h 58% 0 mm WeatherDisplay:10.37 W/m2 OVC
15:35 29 °C 21.5 °C 1017.5 hPa WNW 5.6 km/h 5.6 km/h 64% 0 mm WeatherDisplay:10.37 W/m2 OVC
15:40 29.2 °C 19.8 °C 1017.5 hPa NW 5.6 km/h 5.6 km/h 57% 0 mm WeatherDisplay:10.37 W/m2 OVC
15:45 29.1 °C 19.9 °C 1017.5 hPa WNW 5.6 km/h 5.6 km/h 58% 0 mm WeatherDisplay:10.37 W/m2 SCT
15:50 28.8 °C 19.7 °C 1017.5 hPa NW 3.7 km/h 3.7 km/h 58% 0 mm WeatherDisplay:10.37 W/m2 SCT
15:55 28.7 °C 20.1 °C 1017.5 hPa NW 3.7 km/h 3.7 km/h 60% 0 mm WeatherDisplay:10.37 W/m2 SCT
16:00 28.6 °C 20.3 °C 1017.2 hPa WNW 5.6 km/h 5.6 km/h 61% 0 mm WeatherDisplay:10.37 W/m2 SCT
16:05 28.6 °C 20.3 °C 1017.2 hPa NNW 5.6 km/h 5.6 km/h 61% 0 mm WeatherDisplay:10.37 W/m2 SCT
16:10 28.6 °C 19.8 °C 1017.2 hPa North 5.6 km/h 5.6 km/h 59% 0 mm WeatherDisplay:10.37 W/m2 SCT
16:15 28.8 °C 20 °C 1017.2 hPa NNE 7.4 km/h 7.4 km/h 59% 0 mm WeatherDisplay:10.37 W/m2 SCT
16:20 29.1 °C 19.9 °C 1017.2 hPa North 5.6 km/h 5.6 km/h 58% 0 mm WeatherDisplay:10.37 W/m2 SCT
16:25 29.1 °C 19.7 °C 1017.2 hPa NNE 5.6 km/h 5.6 km/h 57% 0 mm WeatherDisplay:10.37 W/m2 OVC
16:30 29.1 °C 19.4 °C 1017.2 hPa NW 7.4 km/h 7.4 km/h 56% 0 mm WeatherDisplay:10.37 W/m2 OVC
16:35 29.2 °C 20.1 °C 1017.2 hPa NNW 5.6 km/h 5.6 km/h 58% 0 mm WeatherDisplay:10.37 W/m2 OVC
16:40 29.4 °C 19.7 °C 1017.2 hPa NNW 5.6 km/h 5.6 km/h 56% 0 mm WeatherDisplay:10.37 W/m2 OVC
16:45 29.6 °C 19.8 °C 1017.2 hPa NNW 5.6 km/h 5.6 km/h 56% 0 mm WeatherDisplay:10.37 W/m2 BKN
16:50 29.8 °C 20.1 °C 1017.2 hPa NNW 5.6 km/h 5.6 km/h 56% 0 mm WeatherDisplay:10.37 W/m2 BKN
16:55 29.7 °C 19.4 °C 1017.2 hPa NE 8 km/h 8 km/h 54% 0 mm WeatherDisplay:10.37 W/m2 BKN
17:00 29.5 °C 19.5 °C 1017.2 hPa NNE 7.4 km/h 7.4 km/h 55% 0 mm WeatherDisplay:10.37 W/m2 BKN
17:05 29.6 °C 19.8 °C 1017.2 hPa NNE 3.7 km/h 3.7 km/h 56% 0 mm WeatherDisplay:10.37 W/m2 BKN
17:10 29.7 °C 19.9 °C 1017.2 hPa North 7.4 km/h 7.4 km/h 56% 0 mm WeatherDisplay:10.37 W/m2 BKN
17:15 29.6 °C 20.1 °C 1017.2 hPa NNW 5.6 km/h 5.6 km/h 57% 0 mm WeatherDisplay:10.37 W/m2 BKN
17:20 29.7 °C 19.9 °C 1017.2 hPa West 5.6 km/h 5.6 km/h 56% 0 mm WeatherDisplay:10.37 W/m2 BKN
17:25 29.7 °C 19.9 °C 1017.2 hPa West 3.7 km/h 3.7 km/h 56% 0 mm WeatherDisplay:10.37 W/m2 SCT
17:30 29.7 °C 19.7 °C 1017.2 hPa West 3.7 km/h 3.7 km/h 55% 0 mm WeatherDisplay:10.37 W/m2 SCT
17:35 29.7 °C 19.9 °C 1017.2 hPa West 5.6 km/h 5.6 km/h 56% 0 mm WeatherDisplay:10.37 W/m2 SCT
17:40 29.8 °C 20.3 °C 1017.2 hPa NNW 5.6 km/h 5.6 km/h 57% 0 mm WeatherDisplay:10.37 W/m2 SCT
17:45 29.9 °C 19.9 °C 1017.2 hPa West 5.6 km/h 5.6 km/h 55% 0 mm WeatherDisplay:10.37 W/m2 BKN
17:50 29.8 °C 19.4 °C 1017.2 hPa West 5.6 km/h 5.6 km/h 54% 0 mm WeatherDisplay:10.37 W/m2 BKN
17:55 29.8 °C 19.7 °C 1017.2 hPa NNW 5.6 km/h 5.6 km/h 55% 0 mm WeatherDisplay:10.37 W/m2 BKN
18:00 29.8 °C 20.4 °C 1017.2 hPa NNW 5.6 km/h 5.6 km/h 57% 0 mm WeatherDisplay:10.37 W/m2 BKN
18:05 29.5 °C 19.2 °C 1017.2 hPa WSW 6.4 km/h 6.4 km/h 54% 0 mm WeatherDisplay:10.37 W/m2 BKN
18:10 29.2 °C 19.8 °C 1017.2 hPa WSW 5.6 km/h 5.6 km/h 57% 0 mm WeatherDisplay:10.37 W/m2 BKN
18:15 28.8 °C 19.9 °C 1016.8 hPa WNW 5.6 km/h 5.6 km/h 59% 0 mm WeatherDisplay:10.37 W/m2 BKN
18:20 28.6 °C 20.3 °C 1016.8 hPa WNW 4.8 km/h 4.8 km/h 61% 0 mm WeatherDisplay:10.37 W/m2 BKN
18:25 28.5 °C 20.2 °C 1017.2 hPa NE 3.7 km/h 3.7 km/h 61% 0 mm WeatherDisplay:10.37 W/m2 BKN
18:30 28.4 °C 20.7 °C 1017.2 hPa WNW 1.9 km/h   63% 0 mm WeatherDisplay:10.37 W/m2 BKN
18:35 28.3 °C 20.6 °C 1017.2 hPa WNW 3.7 km/h 3.7 km/h 63% 0 mm WeatherDisplay:10.37 W/m2 BKN
18:40 28.2 °C 20.7 °C 1017.2 hPa NNE 3.7 km/h 3.7 km/h 64% 0 mm WeatherDisplay:10.37 W/m2 BKN
18:45 28.1 °C 20.1 °C 1017.2 hPa NNE 3.7 km/h 3.7 km/h 62% 0 mm WeatherDisplay:10.37 W/m2 SCT
18:50 27.9 °C 19.9 °C 1017.2 hPa NNE 5.6 km/h 5.6 km/h 62% 0 mm WeatherDisplay:10.37 W/m2 SCT
18:55 27.8 °C 20.6 °C 1017.2 hPa NNE 3.7 km/h 3.7 km/h 65% 0 mm WeatherDisplay:10.37 W/m2 SCT
18:56 27.8 °C 20.4 °C 1017.2 hPa NNE 5.6 km/h 5.6 km/h 64% 0 mm WeatherDisplay:10.37 W/m2 SCT
19:01 27.7 °C 20.5 °C 1017.2 hPa NNE 5.6 km/h 5.6 km/h 65% 0 mm WeatherDisplay:10.37 W/m2 SCT
19:06 27.6 °C 20.4 °C 1017.2 hPa NNE 3.7 km/h 3.7 km/h 65% 0 mm WeatherDisplay:10.37 W/m2 BKN
19:11 27.5 °C 20.8 °C 1017.2 hPa NNE 3.7 km/h 3.7 km/h 67% 0 mm WeatherDisplay:10.37 W/m2 BKN
19:16 27.3 °C 20.7 °C 1017.2 hPa NNE 3.7 km/h 3.7 km/h 67% 0 mm WeatherDisplay:10.37 W/m2 BKN
19:21 27.2 °C 20.5 °C 1017.2 hPa NNE 3.7 km/h 3.7 km/h 67% 0 mm WeatherDisplay:10.37 W/m2 BKN
19:26 27.1 °C 20.9 °C 1017.2 hPa NNE 3.2 km/h 3.2 km/h 69% 0 mm WeatherDisplay:10.37 W/m2 BKN
19:31 27 °C 21.1 °C 1017.2 hPa Calm     70% 0 mm WeatherDisplay:10.37 W/m2 BKN
19:36 26.9 °C 21.2 °C 1017.2 hPa NNE 1.9 km/h 1.9 km/h 71% 0 mm WeatherDisplay:10.37 W/m2 BKN
19:41 26.8 °C 21.1 °C 1017.5 hPa NNE 1.9 km/h   71% 0 mm WeatherDisplay:10.37 W/m2 OVC
19:46 26.6 °C 20.9 °C 1017.5 hPa NNE 1.9 km/h 1.9 km/h 71% 0 mm WeatherDisplay:10.37 W/m2 OVC
19:51 26.4 °C 20.7 °C 1017.5 hPa NNE 3.7 km/h 3.7 km/h 71% 0 mm WeatherDisplay:10.37 W/m2 OVC
19:56 26.3 °C 21.1 °C 1017.5 hPa Calm     73% 0 mm WeatherDisplay:10.37 W/m2 OVC
20:01 26.1 °C 21.3 °C 1017.5 hPa Calm     75% 0 mm WeatherDisplay:10.37 W/m2 OVC
20:06 25.9 °C 21.1 °C 1017.5 hPa NNE 1.9 km/h 1.9 km/h 75% 0 mm WeatherDisplay:10.37 W/m2 OVC
20:11 25.8 °C 21 °C 1017.5 hPa Calm     75% 0 mm WeatherDisplay:10.37 W/m2 OVC
20:12 25.8 °C 21 °C 1017.5 hPa Calm     75% 0 mm WeatherDisplay:10.37 W/m2 OVC
20:17 25.6 °C 21.1 °C 1017.5 hPa Calm     76% 0 mm WeatherDisplay:10.37 W/m2 OVC
20:22 25.4 °C 21.1 °C 1017.5 hPa NNE 1.9 km/h 1.9 km/h 77% 0 mm WeatherDisplay:10.37 W/m2 OVC
20:27 25.2 °C 21.3 °C 1017.5 hPa NNE 1.9 km/h   79% 0 mm WeatherDisplay:10.37 W/m2 OVC
20:32 25 °C 21.1 °C 1017.5 hPa Calm     79% 0 mm WeatherDisplay:10.37 W/m2 OVC
20:37 24.8 °C 20.9 °C 1017.5 hPa NNE 1.9 km/h 1.9 km/h 79% 0 mm WeatherDisplay:10.37 W/m2 OVC
20:42 24.7 °C 20.8 °C 1017.5 hPa Calm     79% 0 mm WeatherDisplay:10.37 W/m2 OVC
20:47 24.4 °C 20.6 °C 1017.5 hPa Calm     79% 0 mm WeatherDisplay:10.37 W/m2 OVC
20:52 24.3 °C 20.6 °C 1017.8 hPa Calm     80% 0 mm WeatherDisplay:10.37 W/m2 OVC
20:57 24.1 °C 20.6 °C 1017.8 hPa Calm     81% 0 mm WeatherDisplay:10.37 W/m2 BKN
21:02 23.9 °C 20.7 °C 1017.8 hPa Calm     82% 0 mm WeatherDisplay:10.37 W/m2 BKN
21:07 23.8 °C 20.6 °C 1017.8 hPa Calm     82% 0 mm WeatherDisplay:10.37 W/m2 BKN
21:12 23.7 °C 20.6 °C 1017.8 hPa Calm     83% 0 mm WeatherDisplay:10.37 W/m2 BKN
21:17 23.6 °C 20.7 °C 1018.2 hPa Calm     84% 0 mm WeatherDisplay:10.37 W/m2 BKN
21:22 23.4 °C 20.5 °C 1018.2 hPa Calm     84% 0 mm WeatherDisplay:10.37 W/m2 OVC
21:27 23.2 °C 20.6 °C 1018.2 hPa NNE 3.2 km/h   85% 0 mm WeatherDisplay:10.37 W/m2 OVC
21:32 23.1 °C 20.6 °C 1018.2 hPa NNE 3.7 km/h 3.7 km/h 86% 0 mm WeatherDisplay:10.37 W/m2 OVC
21:37 22.9 °C 20.4 °C 1018.2 hPa Calm     86% 0 mm WeatherDisplay:10.37 W/m2 OVC
21:42 22.7 °C 20.2 °C 1018.2 hPa Calm     86% 0 mm WeatherDisplay:10.37 W/m2 OVC
21:47 22.6 °C 20.1 °C 1018.2 hPa Calm     86% 0 mm WeatherDisplay:10.37 W/m2 OVC
21:52 22.5 °C 20.2 °C 1018.2 hPa Calm     87% 0 mm WeatherDisplay:10.37 W/m2 OVC
21:57 22.4 °C 20.1 °C 1018.5 hPa NNE 1.9 km/h   87% 0 mm WeatherDisplay:10.37 W/m2 OVC
22:02 22.3 °C 20.1 °C 1018.5 hPa Calm     87% 0 mm WeatherDisplay:10.37 W/m2 OVC
22:07 22.3 °C 20 °C 1018.5 hPa NNE 3.2 km/h   87% 0 mm WeatherDisplay:10.37 W/m2 OVC
22:12 22.3 °C 20.2 °C 1018.5 hPa NNE 1.9 km/h 1.9 km/h 88% 0 mm WeatherDisplay:10.37 W/m2 OVC
22:17 22.3 °C 20.2 °C 1018.5 hPa NNE 3.7 km/h 3.7 km/h 88% 0 mm WeatherDisplay:10.37 W/m2 OVC
22:22 22.3 °C 20.2 °C 1018.5 hPa NNE 3.7 km/h 3.7 km/h 88% 0 mm WeatherDisplay:10.37 W/m2 BKN
22:27 22.4 °C 20.1 °C 1018.8 hPa NNE 3.7 km/h 3.7 km/h 87% 0 mm WeatherDisplay:10.37 W/m2 BKN
22:32 22.4 °C 20.1 °C 1018.8 hPa Calm     87% 0 mm WeatherDisplay:10.37 W/m2 BKN
22:37 22.4 °C 20.1 °C 1018.5 hPa NNE 1.6 km/h 1.6 km/h 87% 0 mm WeatherDisplay:10.37 W/m2 BKN
22:42 22.3 °C 20.2 °C 1018.5 hPa NNE 3.7 km/h 3.7 km/h 88% 0 mm WeatherDisplay:10.37 W/m2 OVC
22:47 22.2 °C 20.1 °C 1018.5 hPa NNE 1.9 km/h 1.9 km/h 88% 0 mm WeatherDisplay:10.37 W/m2 OVC
22:52 22.1 °C 19.9 °C 1018.8 hPa NNE 1.9 km/h 1.9 km/h 88% 0 mm WeatherDisplay:10.37 W/m2 OVC
22:57 22 °C 19.9 °C 1018.8 hPa NNE 1.9 km/h 1.9 km/h 88% 0 mm WeatherDisplay:10.37 W/m2 OVC
23:02 21.9 °C 19.8 °C 1018.5 hPa Calm     88% 0 mm WeatherDisplay:10.37 W/m2 OVC
23:07 21.9 °C 19.9 °C 1018.8 hPa Calm     89% 0 mm WeatherDisplay:10.37 W/m2 OVC
23:12 21.8 °C 19.9 °C 1018.8 hPa Calm     89% 0 mm WeatherDisplay:10.37 W/m2 OVC
23:17 21.8 °C 19.9 °C 1018.8 hPa NNE 1.9 km/h 1.9 km/h 89% 0 mm WeatherDisplay:10.37 W/m2 OVC
23:22 21.7 °C 19.8 °C 1018.8 hPa NNE 1.9 km/h 1.9 km/h 89% 0 mm WeatherDisplay:10.37 W/m2 OVC
23:27 21.6 °C 19.7 °C 1018.5 hPa Calm     89% 0 mm WeatherDisplay:10.37 W/m2 OVC
23:32 21.6 °C 19.7 °C 1018.8 hPa NNE 1.9 km/h 1.9 km/h 89% 0 mm WeatherDisplay:10.37 W/m2 OVC
23:37 21.6 °C 19.8 °C 1018.5 hPa Calm     90% 0 mm WeatherDisplay:10.37 W/m2 OVC
23:42 21.5 °C 19.8 °C 1018.8 hPa Calm     90% 0 mm WeatherDisplay:10.37 W/m2 BKN
23:47 21.5 °C 19.8 °C 1018.8 hPa Calm     90% 0 mm WeatherDisplay:10.37 W/m2 BKN
23:52 21.4 °C 19.7 °C 1018.5 hPa Calm     90% 0 mm WeatherDisplay:10.37 W/m2 BKN
23:57 21.4 °C 19.7 °C 1018.5 hPa Calm     90% 0 mm WeatherDisplay:10.37 W/m2 BKN
Smyth Weather
Compliments of Weather Underground - 3 mb